CYFBBGGH

Guest
Details From CYFB - Iqaluit
To BGGH - Nuuk
Flight Number -
Tags generated
Created
Modified
Stats Distance 665 nm / 1,232 km
Max Altitude 35,000 ft / 10,668 m
Waypoints 5
Social Downloads 1
Likes 0
Share VATSIM

Download

Looking for another format? Having issues loading an existing format? Contact us
Advertisement - Login to hide

Notes

Basic altitude profile: - Ascent Rate: 2500ft/min - Ascent Speed: 250kts - Cruise Altitude: 35000ft - Cruise Speed: 420kts - Descent Rate: 1500ft/min - Descent Speed: 250kts

Route

CYFB YFB 5E72 SF 5E86 MA BGGH

ID Type Via Altitude Latitude Longitude Leg Dist Tot Dist Heading (true) Name
O CYFB APT - 0 ft / 0 m 63.75657˚ -68.55606˚ - 0 nm - Iqaluit
YFB VOR - 800 ft / 244 m 63.74167˚ -68.47333˚ 2 nm 2 nm 112° / 112° FROBAY VOR
SF NDB 5E72 (AWY-HI) 35,000 ft / 10,668 m 66.96749˚ -50.94167˚ 477 nm 480 nm 58° / 74° SONDRE STROMFJORD NDB
MA NDB 5E86 (AWY-HI) 16,000 ft / 4,877 m 65.40667˚ -52.92100˚ 105 nm 585 nm 208° / 206° MANIITSOQ NDB
O BGGH APT - 0 ft / 0 m 64.19302˚ -51.67645˚ 79 nm 665 nm 156° / 157° Nuuk

Altitude Profile

Advertisement - Login to hide

Weather


0- 5 10 15 20 25 30 35+ Temperature / ° C

Clouds and Precipitation
Forecast for 2018-05-25 00:00 UTC. Updated 5 hours ago

Ground ~20,000 ft ~40,000 ft Winds

CYFB

Details ICAO CYFB (YFB)
Name Iqaluit
Region Canada
Timezone America/Iqaluit (UTC-4.0)
Stats Elevation 110 ft / 34 m (AMSL)
Location 63.756565° -68.556058°
Runways 1
Magnetic Variation 27.371° W

METAR

CYFB 250400Z 36005KT 15SM -SN OVC041 M04/M08 A2986 RMK SC8 SLP116

Decode

TAF

TAF CYFB 242338Z 2500/2524 VRB03KT P6SM FEW020 BKN040 TEMPO 2500/2512 5SM -SN BKN020 OVC040 FM251200 34010KT P6SM FEW020 BKN040 RMK NXT FCST BY 250600Z

Decode

Departure Runways

ID Width Length Bearing (true) Bearing (mag) Surface Threshold Offset Overrun Length
17 200 ft / 61 m 8,605 ft / 2,623 m 135.58° 162.95° Asphalt 0 ft / 0 m 210 ft / 64 m
35 200 ft / 61 m 8,605 ft / 2,623 m 315.62° 342.99° Asphalt 0 ft / 0 m 243 ft / 74 m

BGGH

Details ICAO BGGH (GOH)
Name Nuuk
Region Greenland
Timezone America/Godthab (UTC-2.0)
Stats Elevation 283 ft / 86 m (AMSL)
Location 64.193021° -51.676454°
Runways 1
Magnetic Variation 26.860° W

METAR

BGGH 250350Z AUTO 05005KT 9999NDV BKN037/// M00/M03 Q1009

Decode

TAF

Not found

Destination Runways

ID Width Length Bearing (true) Bearing (mag) Surface Threshold Offset Overrun Length
05 98 ft / 30 m 3,113 ft / 949 m 18.44° 45.30° Asphalt 0 ft / 0 m 0 ft / 0 m
23 98 ft / 30 m 3,113 ft / 949 m 198.44° 225.30° Asphalt 0 ft / 0 m 0 ft / 0 m

Popular Alternatives